Time;durP1;ratioP1;P1;durP2;ratioP2;P2;SDS_P1;SDS_P2;PMS_P1;PMS_P2;Temp;Humidity;BMP_temperature;BMP_pressure;BME280_temperature;BME280_humidity;BME280_pressure;Samples;Min_cycle;Max_cycle;Signal;HPM_P1;HPM_P2
2023/03/25 00:01:07;;;;;;;;;0.00;0.00;;;;;23.07;41.37;100599.34;5045269;28;45344;-72
2023/03/25 00:03:36;;;;;;;;;0.00;0.00;;;;;23.08;41.33;100606.31;5054447;28;45496;-72
2023/03/25 00:06:05;;;;;;;;;0.00;0.00;;;;;23.09;41.39;100615.06;5057543;28;46493;-72
2023/03/25 00:08:31;;;;;;;;;0.00;0.00;;;;;23.08;41.70;100601.00;5054540;28;45394;-72
2023/03/25 00:10:58;;;;;;;;;1.00;1.00;;;;;23.07;41.71;100602.84;5055822;28;45427;-72
2023/03/25 00:13:24;;;;;;;;;0.00;0.00;;;;;23.07;41.72;100609.97;5058067;28;45340;-72
2023/03/25 00:15:52;;;;;;;;;3.00;1.00;;;;;23.05;41.78;100602.22;5057156;28;46385;-72
2023/03/25 00:18:19;;;;;;;;;0.00;0.00;;;;;23.06;41.97;100601.19;5044670;28;45491;-72
2023/03/25 00:20:48;;;;;;;;;0.00;0.00;;;;;23.07;41.33;100596.69;5049119;28;45281;-71
2023/03/25 00:23:15;;;;;;;;;1.00;1.00;;;;;23.04;40.77;100602.41;5056611;28;45547;-72
2023/03/25 00:25:40;;;;;;;;;0.00;0.00;;;;;23.05;40.54;100610.19;5057569;28;46184;-73
2023/03/25 00:28:07;;;;;;;;;1.33;0.00;;;;;23.01;40.88;100597.47;5036191;28;45464;-71
2023/03/25 00:30:32;;;;;;;;;0.00;0.00;;;;;22.98;40.94;100597.88;5057668;28;45511;-72
2023/03/25 00:33:00;;;;;;;;;0.33;0.00;;;;;23.04;40.89;100608.53;5057959;28;45442;-72
2023/03/25 00:35:27;;;;;;;;;1.00;1.00;;;;;23.03;40.83;100601.56;5039905;28;45364;-72
2023/03/25 00:37:58;;;;;;;;;1.33;0.00;;;;;23.03;40.78;100606.06;5056623;28;45383;-72
2023/03/25 00:40:29;;;;;;;;;1.67;0.67;;;;;23.04;41.15;100600.56;5064007;27;45478;-71
2023/03/25 00:42:55;;;;;;;;;0.00;0.00;;;;;22.98;41.27;100590.72;5039358;28;45359;-72
2023/03/25 00:45:20;;;;;;;;;1.00;0.00;;;;;23.04;41.17;100597.09;5057181;28;46418;-72
2023/03/25 00:47:46;;;;;;;;;0.00;0.00;;;;;23.05;41.01;100599.56;5057807;28;45441;-72
2023/03/25 00:50:11;;;;;;;;;0.33;0.33;;;;;22.97;40.65;100575.81;5057869;28;45444;-72
2023/03/25 00:52:37;;;;;;;;;1.33;1.33;;;;;23.05;41.11;100590.78;5057565;28;45321;-72
2023/03/25 00:55:03;;;;;;;;;3.67;0.00;;;;;23.05;40.86;100593.44;5056663;28;46005;-73
2023/03/25 00:57:29;;;;;;;;;0.67;0.67;;;;;23.04;40.99;100597.09;5057121;28;45301;-72
2023/03/25 00:59:55;;;;;;;;;1.33;0.00;;;;;23.04;40.75;100599.75;5066994;28;45477;-72
2023/03/25 01:02:21;;;;;;;;;2.67;0.00;;;;;23.03;40.54;100590.94;5065280;28;45321;-72
2023/03/25 01:04:48;;;;;;;;;0.00;0.00;;;;;23.02;40.80;100591.97;5057651;28;46290;-72
2023/03/25 01:07:14;;;;;;;;;1.00;1.00;;;;;22.96;40.89;100582.13;5058018;28;45387;-72
2023/03/25 01:09:40;;;;;;;;;0.00;0.00;;;;;23.01;40.88;100579.72;5064255;28;45369;-72
2023/03/25 01:12:06;;;;;;;;;0.67;0.00;;;;;22.94;40.84;100573.56;5068632;28;45447;-72
2023/03/25 01:14:31;;;;;;;;;2.67;0.33;;;;;23.01;40.88;100582.38;5051529;28;46205;-72
2023/03/25 01:16:58;;;;;;;;;1.00;1.00;;;;;23.01;40.54;100577.06;5051060;28;45379;-72
2023/03/25 01:19:24;;;;;;;;;0.67;0.67;;;;;23.00;40.51;100571.97;5046704;28;45335;-72
2023/03/25 01:21:49;;;;;;;;;1.33;1.33;;;;;23.00;41.09;100575.44;5056922;28;45416;-71
2023/03/25 01:24:15;;;;;;;;;1.33;1.00;;;;;22.99;41.24;100573.78;5056234;28;46230;-72
2023/03/25 01:26:42;;;;;;;;;0.33;0.33;;;;;22.97;40.70;100559.91;5056622;28;45307;-72
2023/03/25 01:29:09;;;;;;;;;2.00;1.00;;;;;22.99;41.11;100568.47;5057340;28;45359;-72
2023/03/25 01:31:34;;;;;;;;;0.33;0.33;;;;;22.98;40.63;100572.13;5056673;28;45487;-72
2023/03/25 01:34:00;;;;;;;;;3.33;2.00;;;;;22.88;40.89;100553.09;5056845;28;47037;-72
2023/03/25 01:36:28;;;;;;;;;2.00;1.00;;;;;22.99;40.84;100567.66;5056083;28;45401;-72
2023/03/25 01:38:54;;;;;;;;;0.00;0.00;;;;;22.96;41.34;100569.69;5056414;28;45384;-72
2023/03/25 01:41:20;;;;;;;;;4.00;1.00;;;;;22.95;41.12;100560.09;5064828;28;45409;-72
2023/03/25 01:44:06;;;;;;;;;3.33;1.00;;;;;23.00;41.29;100570.13;5056833;28;45463;-72
2023/03/25 01:46:32;;;;;;;;;1.33;1.00;;;;;22.94;40.92;100563.75;5056672;28;45317;-72
2023/03/25 01:49:01;;;;;;;;;1.00;1.00;;;;;22.99;40.79;100565.00;5056761;28;45345;-72
2023/03/25 01:51:31;;;;;;;;;2.33;1.00;;;;;22.97;40.94;100567.88;5056356;28;45480;-72
2023/03/25 01:53:56;;;;;;;;;2.33;2.00;;;;;23.00;40.77;100564.00;5055919;28;46162;-72
2023/03/25 01:56:29;;;;;;;;;4.00;1.67;;;;;23.00;41.04;100567.47;5056229;28;45280;-72
2023/03/25 01:58:57;;;;;;;;;2.33;2.33;;;;;22.99;40.75;100565.00;5055667;28;45372;-73
2023/03/25 02:01:25;;;;;;;;;1.33;1.00;;;;;23.00;41.24;100561.34;5056634;28;45352;-72
2023/03/25 02:03:52;;;;;;;;;2.00;1.00;;;;;23.00;41.26;100558.69;5038175;28;47240;-72
2023/03/25 02:06:27;;;;;;;;;3.33;1.00;;;;;23.00;41.38;100570.13;5056389;28;45380;-72
2023/03/25 02:08:57;;;;;;;;;2.00;2.00;;;;;23.01;41.01;100569.09;5052811;28;45446;-72
2023/03/25 02:11:27;;;;;;;;;3.67;2.00;;;;;23.01;40.96;100578.91;5056198;28;45380;-72
2023/03/25 02:13:55;;;;;;;;;2.33;2.00;;;;;23.00;40.73;100570.13;5056175;28;47096;-72
2023/03/25 02:16:40;;;;;;;;;2.00;0.00;;;;;23.00;40.78;100562.19;5045416;28;45299;-72
2023/03/25 02:19:25;;;;;;;;;3.67;2.00;;;;;23.00;41.39;100566.66;5044425;28;45508;-72
2023/03/25 02:21:56;;;;;;;;;4.00;1.00;;;;;23.01;41.10;100557.66;5060135;28;45667;-72
2023/03/25 02:24:28;;;;;;;;;4.00;1.00;;;;;22.98;40.96;100550.91;5061607;28;45437;-72
2023/03/25 02:27:26;;;;;;;;;4.00;2.00;;;;;22.98;41.01;100550.13;5042621;28;45420;-72
2023/03/25 02:30:28;;;;;;;;;2.00;1.00;;;;;22.96;41.05;100553.78;5055501;28;45482;-72
2023/03/25 02:33:30;;;;;;;;;2.67;1.00;;;;;22.94;41.29;100547.84;5055525;28;45574;-72
2023/03/25 02:36:40;;;;;;;;;1.00;1.00;;;;;22.93;41.32;100556.81;5047408;28;46423;-71
2023/03/25 02:39:23;;;;;;;;;1.33;1.33;;;;;22.88;40.70;100558.38;5056126;28;45378;-72
2023/03/25 02:42:03;;;;;;;;;1.00;1.00;;;;;22.93;41.27;100553.31;5044229;28;45369;-72
2023/03/25 02:44:43;;;;;;;;;1.00;1.00;;;;;22.91;41.17;100550.88;5059725;28;45370;-72
2023/03/25 02:47:16;;;;;;;;;2.67;0.67;;;;;22.91;41.16;100552.72;5055790;28;46212;-72
2023/03/25 02:49:55;;;;;;;;;1.00;1.00;;;;;22.92;41.29;100557.00;5055472;28;45501;-72
2023/03/25 02:52:33;;;;;;;;;1.67;1.67;;;;;22.91;40.84;100553.53;5055663;28;45453;-72
2023/03/25 02:55:03;;;;;;;;;1.00;1.00;;;;;22.90;40.98;100565.16;5061199;27;45953;-72
2023/03/25 02:57:34;;;;;;;;;2.33;0.67;;;;;22.91;40.90;100573.94;5057710;28;46153;-72
2023/03/25 03:00:01;;;;;;;;;2.00;1.00;;;;;22.90;41.07;100569.66;5055690;28;45503;-72
2023/03/25 03:02:31;;;;;;;;;3.00;1.00;;;;;22.89;41.18;100574.13;5055549;28;45369;-73
2023/03/25 03:04:56;;;;;;;;;1.67;1.00;;;;;22.90;40.83;100573.09;5055300;28;45421;-72
2023/03/25 03:07:35;;;;;;;;;1.33;1.33;;;;;22.90;41.28;100574.97;5054903;28;47118;-71
2023/03/25 03:10:20;;;;;;;;;3.00;1.00;;;;;22.90;41.31;100577.63;5055867;28;45440;-72
2023/03/25 03:13:04;;;;;;;;;2.67;1.00;;;;;22.90;40.70;100588.22;5044580;28;45354;-72
2023/03/25 03:16:01;;;;;;;;;0.00;0.00;;;;;22.87;40.91;100580.66;5055282;28;45496;-72
2023/03/25 03:19:04;;;;;;;;;5.00;1.00;;;;;22.90;40.61;100589.03;4959442;28;46083;-72
2023/03/25 03:21:42;;;;;;;;;1.67;0.00;;;;;22.89;40.82;100586.56;4973313;28;45552;-72
2023/03/25 03:24:22;;;;;;;;;3.00;1.00;;;;;22.85;41.03;100607.34;4973492;28;45370;-72
2023/03/25 03:27:00;;;;;;;;;2.00;2.00;;;;;22.89;41.25;100595.34;4957557;28;45500;-72
2023/03/25 03:29:32;;;;;;;;;2.00;1.00;;;;;22.88;40.61;100601.66;4973630;28;46331;-72
2023/03/25 03:32:34;;;;;;;;;0.00;0.00;;;;;22.88;41.32;100600.84;4972342;28;45555;-72
2023/03/25 03:35:07;;;;;;;;;1.00;1.00;;;;;22.87;40.99;100596.56;4915829;28;45394;-73
2023/03/25 03:37:39;;;;;;;;;2.00;1.33;;;;;22.86;41.23;100603.69;4915050;28;45280;-72
2023/03/25 03:40:10;;;;;;;;;1.00;1.00;;;;;22.87;40.92;100604.50;4920208;28;46531;-71
2023/03/25 03:42:41;;;;;;;;;0.67;0.00;;;;;22.85;40.71;100610.81;4915266;28;45474;-73
2023/03/25 03:45:15;;;;;;;;;1.00;1.00;;;;;22.83;41.06;100609.38;4915830;28;45364;-72
2023/03/25 03:47:46;;;;;;;;;0.50;0.50;;;;;22.83;40.88;100620.81;4918737;28;45460;-73
2023/03/25 03:50:17;;;;;;;;;0.67;0.33;;;;;22.82;41.00;100634.28;4918156;28;46998;-72
2023/03/25 03:52:54;;;;;;;;;1.00;1.00;;;;;22.82;40.69;100632.41;4902443;28;45532;-72
2023/03/25 03:55:36;;;;;;;;;2.67;1.00;;;;;22.84;41.01;100640.19;4941740;28;45331;-73
2023/03/25 03:58:08;;;;;;;;;1.33;0.00;;;;;22.83;41.09;100638.56;4995667;28;45411;-71
2023/03/25 04:01:26;;;;;;;;;0.00;0.00;;;;;22.81;41.23;100645.88;4998840;28;45405;-73
2023/03/25 04:03:58;;;;;;;;;2.67;1.00;;;;;22.81;40.81;100649.38;4992244;28;45379;-72
2023/03/25 04:06:34;;;;;;;;;0.33;0.33;;;;;22.77;40.57;100645.44;4995800;28;45498;-71
2023/03/25 04:09:26;;;;;;;;;2.00;1.00;;;;;22.80;40.57;100654.84;4995753;28;45430;-72
2023/03/25 04:12:10;;;;;;;;;2.00;1.00;;;;;22.78;41.13;100663.00;5041516;28;46400;-72
2023/03/25 04:14:38;;;;;;;;;1.00;1.00;;;;;22.73;40.89;100660.91;5058083;28;45292;-72
2023/03/25 04:17:05;;;;;;;;;0.00;0.00;;;;;22.78;41.16;100667.47;5055127;28;45458;-72
2023/03/25 04:19:32;;;;;;;;;0.67;0.67;;;;;22.77;41.18;100679.13;5048694;28;45283;-72
2023/03/25 04:22:04;;;;;;;;;0.00;0.00;;;;;22.76;41.24;100672.97;5060865;28;46122;-73
2023/03/25 04:24:30;;;;;;;;;0.33;0.33;;;;;22.77;41.13;100685.22;5057046;28;45466;-72
2023/03/25 04:27:02;;;;;;;;;0.33;0.33;;;;;22.77;40.50;100684.41;5058025;28;45311;-73
2023/03/25 04:29:31;;;;;;;;;3.00;1.00;;;;;22.79;40.39;100677.09;5058279;28;45368;-73
2023/03/25 04:31:57;;;;;;;;;2.00;0.67;;;;;22.70;40.78;100666.59;5057446;28;46178;-72
2023/03/25 04:34:23;;;;;;;;;0.00;0.00;;;;;22.79;40.62;100688.53;5057728;28;45458;-72
2023/03/25 04:36:49;;;;;;;;;0.00;0.00;;;;;22.79;40.38;100687.69;5057738;28;45454;-72
2023/03/25 04:39:16;;;;;;;;;0.00;0.00;;;;;22.80;40.54;100702.59;5065517;28;45432;-72
2023/03/25 04:41:42;;;;;;;;;1.33;0.67;;;;;22.80;40.47;100695.44;5056571;28;46296;-72
2023/03/25 04:44:08;;;;;;;;;1.00;1.00;;;;;22.71;40.79;100675.38;5057894;28;45523;-72
2023/03/25 04:46:35;;;;;;;;;1.00;0.67;;;;;22.78;40.82;100684.22;5057538;28;45312;-71
2023/03/25 04:49:02;;;;;;;;;0.00;0.00;;;;;22.76;40.80;100686.25;5062903;28;45447;-72
2023/03/25 04:51:29;;;;;;;;;1.00;1.00;;;;;22.77;40.55;100697.69;5057364;28;46273;-73
2023/03/25 04:53:54;;;;;;;;;1.33;1.00;;;;;22.77;40.57;100695.81;5057543;28;45460;-72
2023/03/25 04:56:19;;;;;;;;;3.33;1.00;;;;;22.77;40.34;100695.81;5067146;28;45442;-73
2023/03/25 04:58:45;;;;;;;;;0.33;0.00;;;;;22.72;40.64;100690.25;5056435;28;45336;-72
2023/03/25 05:01:29;;;;;;;;;1.00;1.00;;;;;22.69;40.33;100694.09;5057337;28;45471;-72
2023/03/25 05:04:04;;;;;;;;;2.33;1.00;;;;;22.76;40.93;100704.81;5067759;28;46020;-72
2023/03/25 05:06:34;;;;;;;;;2.67;0.33;;;;;22.73;40.93;100708.66;5057735;28;45549;-72
2023/03/25 05:09:02;;;;;;;;;1.67;1.67;;;;;22.73;40.76;100706.00;5057371;28;45360;-72
2023/03/25 05:11:28;;;;;;;;;3.67;1.00;;;;;22.63;40.55;100693.03;5065472;27;46226;-72
2023/03/25 05:13:54;;;;;;;;;1.00;1.00;;;;;22.73;40.84;100715.78;5057195;28;45342;-72
2023/03/25 05:16:19;;;;;;;;;0.00;0.00;;;;;22.72;41.08;100725.56;5057319;28;45456;-72
2023/03/25 05:18:45;;;;;;;;;1.00;0.00;;;;;22.73;40.81;100718.44;5046685;28;45354;-72
2023/03/25 05:21:11;;;;;;;;;0.00;0.00;;;;;22.72;40.66;100725.56;5059013;28;46478;-73
2023/03/25 05:23:37;;;;;;;;;2.00;0.67;;;;;22.71;40.57;100720.47;5057130;28;45270;-72
2023/03/25 05:26:03;;;;;;;;;3.00;1.00;;;;;22.72;40.64;100740.66;5056099;28;45522;-71
2023/03/25 05:28:29;;;;;;;;;1.33;1.00;;;;;22.63;40.31;100716.91;5056506;28;45467;-71
2023/03/25 05:30:55;;;;;;;;;1.00;0.67;;;;;22.71;40.65;100741.69;5057354;28;46114;-73
2023/03/25 05:33:20;;;;;;;;;0.00;0.00;;;;;22.63;40.52;100726.69;5056938;28;45291;-72
2023/03/25 05:35:46;;;;;;;;;2.00;0.00;;;;;22.67;40.83;100735.06;5056136;28;45277;-72
2023/03/25 05:38:12;;;;;;;;;0.00;0.00;;;;;22.69;40.34;100749.78;5057003;28;45445;-72
2023/03/25 05:40:39;;;;;;;;;0.67;0.00;;;;;22.68;40.24;100740.19;5056820;28;46402;-72
2023/03/25 05:43:05;;;;;;;;;0.00;0.00;;;;;22.61;40.55;100740.09;5058724;28;45431;-72
2023/03/25 05:45:31;;;;;;;;;0.33;0.33;;;;;22.67;40.71;100740.38;5056608;28;45506;-72
2023/03/25 05:47:59;;;;;;;;;2.33;1.00;;;;;22.67;40.73;100745.66;5056258;28;45487;-72
2023/03/25 05:50:26;;;;;;;;;1.33;1.33;;;;;22.67;40.92;100746.50;5056819;28;46245;-73
2023/03/25 05:52:51;;;;;;;;;0.67;0.67;;;;;22.68;40.33;100750.81;5056571;28;45361;-73
2023/03/25 05:55:20;;;;;;;;;0.00;0.00;;;;;22.68;40.57;100744.66;5056943;28;45474;-72
2023/03/25 05:57:46;;;;;;;;;2.33;0.00;;;;;22.69;40.91;100751.63;5056491;28;45348;-71
2023/03/25 06:00:12;;;;;;;;;1.67;0.67;;;;;22.70;40.19;100747.97;5062395;28;47214;-72
2023/03/25 06:02:44;;;;;;;;;2.00;0.67;;;;;22.63;40.29;100739.94;5052162;28;45591;-72
2023/03/25 06:05:14;;;;;;;;;1.00;1.00;;;;;22.70;40.65;100756.78;5056715;28;45394;-72
2023/03/25 06:07:41;;;;;;;;;0.33;0.33;;;;;22.61;40.31;100737.44;5056075;28;46397;-72
2023/03/25 06:10:09;;;;;;;;;1.00;0.00;;;;;22.70;40.65;100754.13;5044983;28;45412;-71
2023/03/25 06:12:37;;;;;;;;;1.00;0.67;;;;;22.71;40.40;100754.94;5056130;28;45384;-71
2023/03/25 06:15:04;;;;;;;;;1.00;0.00;;;;;22.71;40.72;100762.91;5055694;28;45415;-72
2023/03/25 06:17:32;;;;;;;;;1.67;0.00;;;;;22.69;40.35;100765.69;5049241;28;45293;-72
2023/03/25 06:19:59;;;;;;;;;2.00;1.00;;;;;22.71;40.33;100770.84;5049684;28;47212;-73
2023/03/25 06:22:25;;;;;;;;;0.00;0.00;;;;;22.71;39.99;100768.22;5056291;28;45494;-72
2023/03/25 06:24:51;;;;;;;;;0.67;0.00;;;;;22.72;39.91;100773.31;5055856;28;45490;-72
2023/03/25 06:27:18;;;;;;;;;0.00;0.00;;;;;22.72;39.95;100786.56;5056513;28;45423;-72
2023/03/25 06:29:44;;;;;;;;;1.00;0.00;;;;;22.72;40.52;100770.66;5055490;28;46222;-72
2023/03/25 06:32:14;;;;;;;;;0.00;0.00;;;;;22.71;40.03;100787.59;5055903;28;45404;-72
2023/03/25 06:34:41;;;;;;;;;1.33;0.00;;;;;22.71;40.40;100778.81;5046816;28;45365;-72
2023/03/25 06:37:07;;;;;;;;;1.00;1.00;;;;;22.72;40.22;100786.56;5056034;28;45324;-72
2023/03/25 06:39:32;;;;;;;;;2.00;0.00;;;;;22.69;40.27;100786.09;5055395;28;46134;-72
2023/03/25 06:42:01;;;;;;;;;2.00;0.00;;;;;22.71;40.74;100784.13;5055683;28;45413;-73
2023/03/25 06:44:26;;;;;;;;;0.00;0.00;;;;;22.71;40.71;100789.41;5055336;28;45413;-72
2023/03/25 06:46:52;;;;;;;;;0.00;0.00;;;;;22.70;40.29;100791.25;5055995;28;45227;-72
2023/03/25 06:49:18;;;;;;;;;0.00;0.00;;;;;22.66;40.13;100789.97;5037413;28;48192;-72
2023/03/25 06:51:43;;;;;;;;;1.00;1.00;;;;;22.68;39.98;100795.06;5065113;28;45420;-72
2023/03/25 06:54:09;;;;;;;;;1.00;1.00;;;;;22.68;39.95;100787.94;5055412;28;45468;-73
2023/03/25 06:56:34;;;;;;;;;0.33;0.33;;;;;22.66;40.42;100789.97;5055980;28;45380;-70
2023/03/25 06:58:59;;;;;;;;;3.67;0.00;;;;;22.66;40.01;100795.25;5056577;28;46081;-71
2023/03/25 07:01:25;;;;;;;;;0.67;0.67;;;;;22.66;40.48;100795.25;5043140;28;45435;-72
2023/03/25 07:03:50;;;;;;;;;1.00;0.00;;;;;22.67;40.75;100801.34;5056930;28;45372;-72
2023/03/25 07:06:17;;;;;;;;;0.67;0.67;;;;;22.66;40.14;100797.91;5024851;28;45602;-73
2023/03/25 07:08:43;;;;;;;;;0.33;0.33;;;;;22.66;40.59;100795.25;5055054;28;46329;-72
2023/03/25 07:11:11;;;;;;;;;0.67;0.67;;;;;22.65;40.79;100804.22;5055288;28;45305;-72
2023/03/25 07:13:36;;;;;;;;;0.00;0.00;;;;;22.58;40.43;100784.75;5055364;28;45305;-72
2023/03/25 07:16:02;;;;;;;;;0.00;0.00;;;;;22.64;40.42;100802.56;5055231;28;45478;-72
2023/03/25 07:18:27;;;;;;;;;0.33;0.00;;;;;22.65;39.99;100795.44;5042014;28;46022;-72
2023/03/25 07:20:53;;;;;;;;;1.00;0.00;;;;;22.60;40.09;100790.69;5059583;28;45467;-72
2023/03/25 07:23:18;;;;;;;;;0.33;0.00;;;;;22.56;40.27;100790.22;5058777;28;45218;-72
2023/03/25 07:25:43;;;;;;;;;2.33;0.33;;;;;22.54;40.08;100781.63;5059162;28;45413;-72
2023/03/25 07:28:09;;;;;;;;;1.00;0.00;;;;;22.65;40.67;100803.38;5058177;28;45419;-72
2023/03/25 07:30:34;;;;;;;;;0.33;0.33;;;;;22.58;39.97;100809.44;5058479;28;45367;-72
2023/03/25 07:33:00;;;;;;;;;0.00;0.00;;;;;22.65;40.18;100820.13;5046535;28;45332;-72
2023/03/25 07:35:25;;;;;;;;;0.00;0.00;;;;;22.67;40.22;100814.63;5058759;28;45447;-72
2023/03/25 07:37:50;;;;;;;;;0.00;0.00;;;;;22.66;40.30;100819.13;5058166;28;47280;-72
2023/03/25 07:40:16;;;;;;;;;0.00;0.00;;;;;22.68;40.12;100810.97;5040937;28;45511;-72
2023/03/25 07:42:43;;;;;;;;;0.00;0.00;;;;;22.68;39.84;100827.72;5057990;28;45306;-73
2023/03/25 07:45:09;;;;;;;;;1.33;0.33;;;;;22.62;39.85;100823.13;5046676;28;45357;-72
2023/03/25 07:47:34;;;;;;;;;0.33;0.00;;;;;22.69;40.11;100833.84;5058348;28;45541;-72
2023/03/25 07:50:00;;;;;;;;;0.00;0.00;;;;;22.67;40.33;100826.06;5058660;28;45329;-72
2023/03/25 07:52:25;;;;;;;;;0.00;0.00;;;;;22.68;39.91;100826.88;5058537;28;45333;-72
2023/03/25 07:54:50;;;;;;;;;1.00;0.00;;;;;22.66;40.51;100848.28;5067006;28;45373;-72
2023/03/25 07:57:15;;;;;;;;;1.33;0.00;;;;;22.68;39.84;100845.44;5057924;28;45364;-72
2023/03/25 07:59:41;;;;;;;;;1.33;0.33;;;;;22.59;40.28;100824.31;5058176;28;45297;-72
2023/03/25 08:02:11;;;;;;;;;0.00;0.00;;;;;22.66;39.87;100844.81;5057831;28;45218;-72
2023/03/25 08:04:36;;;;;;;;;0.00;0.00;;;;;22.66;40.39;100852.78;5028045;28;45428;-72
2023/03/25 08:07:02;;;;;;;;;0.00;0.00;;;;;22.63;40.08;100857.44;5058104;28;47350;-72
2023/03/25 08:09:28;;;;;;;;;2.00;0.00;;;;;22.63;40.25;100853.97;5058553;28;45336;-72
2023/03/25 08:11:53;;;;;;;;;1.00;1.00;;;;;22.63;40.30;100853.97;5056785;28;45396;-72
2023/03/25 08:14:19;;;;;;;;;2.00;0.00;;;;;22.63;40.31;100857.44;5046070;28;45274;-72
2023/03/25 08:16:44;;;;;;;;;1.00;0.67;;;;;22.63;39.98;100865.41;5057323;28;46254;-72
2023/03/25 08:19:10;;;;;;;;;0.33;0.33;;;;;22.61;40.46;100866.59;5045323;28;45523;-72
2023/03/25 08:21:35;;;;;;;;;0.00;0.00;;;;;22.63;40.08;100860.09;5057824;28;45424;-72
2023/03/25 08:24:03;;;;;;;;;2.00;0.00;;;;;22.64;39.98;100860.91;5058230;28;45419;-72
2023/03/25 08:26:30;;;;;;;;;2.00;0.00;;;;;22.64;40.17;100866.19;5057572;28;46217;-72
2023/03/25 08:28:56;;;;;;;;;2.00;0.67;;;;;22.62;40.39;100871.69;5058077;28;45420;-72
2023/03/25 08:31:23;;;;;;;;;0.33;0.00;;;;;22.57;40.16;100855.50;5057165;28;45348;-72
2023/03/25 08:33:49;;;;;;;;;0.33;0.33;;;;;22.52;40.19;100847.28;5060935;28;45508;-72
2023/03/25 08:36:18;;;;;;;;;2.67;0.00;;;;;22.61;39.97;100861.28;5057271;28;47002;-72
2023/03/25 08:38:46;;;;;;;;;1.00;1.00;;;;;22.61;40.03;100866.59;5057585;28;45474;-70
2023/03/25 08:41:13;;;;;;;;;0.00;0.00;;;;;22.61;40.18;100874.53;5056972;28;45391;-72
2023/03/25 08:43:39;;;;;;;;;1.67;0.67;;;;;22.61;40.41;100869.25;5058258;28;45321;-72
2023/03/25 08:46:04;;;;;;;;;0.00;0.00;;;;;22.61;40.47;100878.00;5057776;28;46159;-72
2023/03/25 08:48:29;;;;;;;;;0.67;0.67;;;;;22.62;39.95;100870.88;5057925;28;45285;-72
2023/03/25 08:50:55;;;;;;;;;0.00;0.00;;;;;22.63;39.84;100878.66;5056354;28;45336;-72
2023/03/25 08:53:20;;;;;;;;;0.00;0.00;;;;;22.63;40.29;100878.66;5058067;28;45449;-72
2023/03/25 08:55:50;;;;;;;;;0.00;0.00;;;;;22.66;40.26;100876.63;5056931;28;46140;-72
2023/03/25 08:58:15;;;;;;;;;1.67;1.00;;;;;22.65;40.15;100875.81;5056654;28;45491;-72
2023/03/25 09:00:41;;;;;;;;;0.67;0.00;;;;;22.65;40.14;100880.28;5057524;28;46183;-72
2023/03/25 09:03:06;;;;;;;;;0.00;0.00;;;;;22.65;39.98;100883.75;5057662;28;45476;-72
2023/03/25 09:05:31;;;;;;;;;0.67;0.67;;;;;22.66;39.78;100887.25;5057242;28;45428;-72
2023/03/25 09:07:57;;;;;;;;;0.00;0.00;;;;;22.66;40.16;100876.63;5051670;28;45263;-70
2023/03/25 09:10:22;;;;;;;;;0.33;0.00;;;;;22.63;40.25;100885.78;5057245;28;45399;-72
2023/03/25 09:12:47;;;;;;;;;1.67;0.00;;;;;22.57;39.92;100865.28;5057679;28;45334;-72
2023/03/25 09:15:13;;;;;;;;;0.00;0.00;;;;;22.68;39.60;100911.75;5057191;28;46059;-71
2023/03/25 09:17:39;;;;;;;;;2.00;0.00;;;;;22.68;39.54;100911.75;5049209;28;45405;-71
2023/03/25 09:20:09;;;;;;;;;0.25;0.25;;;;;22.68;39.59;100914.41;5056753;28;45378;-71
2023/03/25 09:22:36;;;;;;;;;0.00;0.00;;;;;22.68;40.11;100923.19;5057233;28;45844;-72
2023/03/25 09:25:01;;;;;;;;;0.00;0.00;;;;;22.68;39.76;100917.88;5055274;28;46317;-72
2023/03/25 09:27:27;;;;;;;;;0.00;0.00;;;;;22.69;39.48;100908.09;5046200;28;45385;-70
2023/03/25 09:29:52;;;;;;;;;4.00;2.00;;;;;22.69;39.95;100910.75;5057108;28;45773;-72
2023/03/25 09:32:18;;;;;;;;;0.00;0.00;;;;;22.60;39.64;100902.88;5057154;28;45334;-72
2023/03/25 09:34:43;;;;;;;;;0.00;0.00;;;;;22.70;39.72;100909.75;5056633;28;45859;-72
2023/03/25 09:37:09;;;;;;;;;5.00;1.00;;;;;22.70;39.97;100909.75;5056906;28;45255;-74
2023/03/25 09:39:34;;;;;;;;;0.00;0.00;;;;;22.68;40.12;100920.53;5069329;28;45426;-70
2023/03/25 09:42:30;;;;;;;;;0.33;0.00;;;;;22.67;40.05;100910.09;5056988;28;45366;-72
2023/03/25 09:45:32;;;;;;;;;1.67;0.00;;;;;22.70;39.52;100923.84;5040921;28;45926;-72
2023/03/25 09:48:09;;;;;;;;;0.00;0.00;;;;;22.71;39.81;100936.13;5056527;28;45466;-74
2023/03/25 09:50:35;;;;;;;;;0.00;0.00;;;;;22.66;39.19;100919.06;5056852;28;45265;-73
2023/03/25 09:53:11;;;;;;;;;0.00;0.00;;;;;22.73;39.59;100933.28;5056050;28;45444;-73
2023/03/25 09:55:43;;;;;;;;;0.00;0.00;;;;;22.69;40.16;100932.78;5056593;28;45546;-74
2023/03/25 09:58:20;;;;;;;;;0.00;0.00;;;;;22.78;40.06;100940.69;5050855;28;45471;-72
2023/03/25 10:00:59;;;;;;;;;1.33;0.00;;;;;22.81;39.47;100946.44;5052546;28;45223;-73
2023/03/25 10:04:20;;;;;;;;;1.67;0.33;;;;;22.85;40.16;100936.28;5055537;28;45599;-74
2023/03/25 10:07:02;;;;;;;;;1.00;0.00;;;;;22.89;39.79;100942.88;4992781;28;46607;-73
2023/03/25 10:10:22;;;;;;;;;0.67;0.67;;;;;22.93;40.30;100948.63;4993540;28;45541;-74
2023/03/25 10:13:06;;;;;;;;;0.67;0.33;;;;;22.96;39.69;100927.03;4915862;28;45401;-73
2023/03/25 10:15:37;;;;;;;;;0.00;0.00;;;;;22.99;39.70;100941.75;4916002;28;45507;-75
2023/03/25 10:18:31;;;;;;;;;0.00;0.00;;;;;23.01;39.92;100945.88;4905904;28;46422;-71
2023/03/25 10:21:08;;;;;;;;;1.00;0.00;;;;;22.98;39.84;100940.94;4915837;28;45441;-75
2023/03/25 10:23:41;;;;;;;;;0.00;0.00;;;;;23.00;39.83;100938.13;4915616;28;45440;-75
2023/03/25 10:26:32;;;;;;;;;2.00;0.00;;;;;23.05;39.82;100943.69;4911630;28;45643;-73
2023/03/25 10:29:09;;;;;;;;;0.67;0.00;;;;;23.07;39.65;100953.13;4915883;28;46100;-73
2023/03/25 10:31:39;;;;;;;;;2.33;1.00;;;;;22.98;39.57;100938.28;4915627;28;45476;-72
2023/03/25 10:34:12;;;;;;;;;0.00;0.00;;;;;23.07;39.50;100953.13;4915607;28;45409;-71
2023/03/25 10:36:45;;;;;;;;;0.00;0.00;;;;;23.02;39.68;100934.28;4914797;28;45424;-72
2023/03/25 10:39:18;;;;;;;;;0.00;0.00;;;;;23.11;39.57;100948.25;4915726;28;46581;-72
2023/03/25 10:41:49;;;;;;;;;0.00;0.00;;;;;23.10;39.16;100949.28;4920262;28;45532;-72
2023/03/25 10:44:14;;;;;;;;;0.00;0.00;;;;;23.10;39.51;100957.22;4935314;28;46313;-71
2023/03/25 10:46:50;;;;;;;;;0.00;0.00;;;;;23.11;39.15;100956.22;4957203;28;45431;-72
2023/03/25 10:49:22;;;;;;;;;1.00;1.00;;;;;23.09;39.49;100949.44;4991109;28;45401;-71
2023/03/25 10:51:56;;;;;;;;;0.00;0.00;;;;;23.08;39.12;100959.25;5055766;28;45472;-72
2023/03/25 10:54:25;;;;;;;;;0.00;0.00;;;;;23.09;39.34;100974.16;5055734;28;45510;-72
2023/03/25 10:56:54;;;;;;;;;0.00;0.00;;;;;23.08;39.27;100972.53;5054782;28;45500;-72
2023/03/25 10:59:32;;;;;;;;;0.00;0.00;;;;;22.98;39.28;100962.16;5055223;28;45511;-72
2023/03/25 11:01:58;;;;;;;;;2.00;0.00;;;;;22.97;39.47;100968.50;5055186;28;45482;-71
2023/03/25 11:04:35;;;;;;;;;3.00;1.00;;;;;23.06;39.01;101001.06;5054659;28;45459;-71
2023/03/25 11:07:04;;;;;;;;;0.00;0.00;;;;;23.05;39.37;100986.16;5055606;28;45564;-71
2023/03/25 11:09:31;;;;;;;;;0.67;0.67;;;;;23.05;39.34;100991.47;5052649;28;46112;-71
2023/03/25 11:12:01;;;;;;;;;0.00;0.00;;;;;23.02;39.15;100997.97;5055527;28;45260;-71
2023/03/25 11:14:28;;;;;;;;;1.00;1.00;;;;;23.02;39.02;101005.91;5055186;28;45353;-72
2023/03/25 11:16:56;;;;;;;;;1.67;0.33;;;;;23.02;39.18;101013.88;5053793;28;45444;-71
2023/03/25 11:19:29;;;;;;;;;1.00;1.00;;;;;23.00;39.35;101012.41;5054771;28;46481;-72
2023/03/25 11:22:01;;;;;;;;;0.00;0.00;;;;;23.00;39.21;101025.69;5041835;28;45499;-71
2023/03/25 11:24:32;;;;;;;;;2.67;0.00;;;;;22.98;39.06;101025.84;5055643;28;45550;-71
2023/03/25 11:26:59;;;;;;;;;0.00;0.00;;;;;22.93;38.93;101017.59;5054792;28;45415;-71
2023/03/25 11:29:26;;;;;;;;;0.00;0.00;;;;;22.96;39.29;101034.00;5049210;28;46250;-71
2023/03/25 11:32:07;;;;;;;;;0.00;0.00;;;;;22.96;38.89;101025.22;5050450;28;45431;-72
2023/03/25 11:34:40;;;;;;;;;1.00;1.00;;;;;22.96;39.09;101036.66;5030521;28;45519;-71
2023/03/25 11:37:15;;;;;;;;;2.00;0.33;;;;;22.95;39.19;101023.56;5055034;28;45466;-71
2023/03/25 11:39:42;;;;;;;;;1.00;1.00;;;;;22.95;39.27;101015.63;5041604;28;45379;-71